Aérodrome :
LOGIN :

S'inscrire | Disclaimer

   EN    FR    IT 

 










Légende :    VFR   VFR Marginal   IFR   IFR Intensif   IFR Très Intensif
Visi : 
Plafond : 
>= 8 km
>= 3000ft
5 à 8 km
1000 à 3000 ft
1500m à 5 km
500 à 1000 ft
800 à 1500m
200 à 500 ft
< 800m
< 200 ft
Symboles :   Orages  Brouillard  Fortes neiges  Fortes précipitations  Vent > 20 kt
SIGMETs :   Divers  Orages  Givrage  Turbulence  Onde Orograph.  Cendres Volcan.







- Altitude de l'aérodrome : 286 ft
- Code IATA : FFD


EGVA - RAF Fairford

DERNIER METAR :
  • 221201Z AUTO 03015G18KT 6000 HZ FEW034 20/11 A3005 RMK AO2 SLP178 $

METARs EXPIRÉS :
  • 221153Z AUTO 03014G18KT 3000 HZ SCT034 19/11 A3005 RMK AO2 VIS 2200V3600 SLP178 $
  • 221148Z AUTO 02012KT 2400 HZ SCT034 19/11 A3005 RMK AO2 VIS 0600V2400 SLP178 $
  • 221143Z AUTO 02012KT 2000 HZ FEW034 19/11 A3005 RMK AO2 VIS 0600V6000 SLP178 $
  • 221124Z AUTO 03015G18KT 5000 HZ CLR 19/11 A3005 RMK AO2 SLP178 $
  • 221118Z AUTO 03013KT 1600 R27/0550VP1500 HZ CLR 19/10 A3005 RMK AO2 SLP178 $
  • 221106Z AUTO 01014G19KT 3600 HZ CLR 19/11 A3005 RMK AO2 VIS 3600V8000 SLP178 $
  • 221040Z AUTO 04014KT 6000 HZ CLR 18/09 A3004 RMK AO2 SLP175 $
  • 221035Z AUTO 02013KT 4000 HZ CLR 18/10 A3004 RMK AO2 VIS 3200V5000 SLP175 $
  • 221030Z AUTO 03013KT 5000 HZ CLR 18/09 A3004 RMK AO2 SLP175 $
  • 221025Z AUTO 03013KT 2800 HZ CLR 18/10 A3004 RMK AO2 VIS 0800V5000 SLP175 $
  • 221019Z AUTO 04010KT 1600 R27/0550VP1500 M CLR 18/09 A3004 RMK AO2 VIS 1600V8000 SLP175 $
  • 220956Z AUTO 03009KT 5000 M CLR 17/09 A3004 RMK AO2 SLP175 T01740093 $
  • 220856Z AUTO 02011KT 9000 M CLR 16/09 A3004 RMK AO2 SLP175 T01590089 $

Prévision TAF périmée.
Pas de NOTAMs connus pour ce terrain.



MET'MAP, la Météo Aéronautique d'un coup d'oeil ! - Copyright ORBIFLY Décembre 2007 - Disclaimer

ORBIFLY MET'MAP TEAM :

Programmation & Développement : Alexandra Zaïnal
Conception & Développement : Baudouin d'Aumeries
Co-Programmation & Développement : Marc-Olivier Méhu
Soutien technique & logistique : Manuel Goepfert

Contact : metmap@orbifly.com




SOURCES & CREDITS :

   NOAA